CTSO2: Bird Creek At Catoosa

                                SHEF ID:       CTSO2     Bird Ck at State Highway 266 nea
STATION TYPE:
Regulating: Stage = 26.00, Flow = 20953

STAGE STAGE(2) RIV-FLOW WTR-TEMP DIS-OXY PH CONDUCT BAT-LOAD
ft ft cfs F mg/l su umho/cm volt
Ccp-Rev Ccp-Rev Ccp-Rev Ccp-Rev Ccp-Rev Ccp-Rev Ccp-Rev Ccp-Rev
(America/Chicago)
05/03 00:00 4.82 3.42 363 69.57 9.00 8.10 394 12.27
05/03 01:00 4.80 3.42 356 69.17 9.00 8.09 389 12.29
05/03 02:00 4.80 3.42 356 68.72 8.76 8.08 392 12.24
05/03 03:00 4.78 3.42 349 68.22 8.62 8.06 392 12.06
05/03 04:00 4.79 3.42 352 67.69 8.52 8.02 380 12.21
05/03 05:00 4.75 3.42 338 67.23 8.40 7.99 380 12.19
05/03 06:00 4.75 3.43 338 66.85 8.36 8.07 387 12.00
05/03 07:00 4.75 3.42 338 66.79 8.32 8.05 386 11.97
05/03 08:00 4.70 3.42 322 67.01 8.58 8.00 381 12.99
05/03 09:00 4.72 3.43 328 67.32 8.63 7.98 380 13.22
05/03 10:00 4.76 3.42 342 67.69 8.87 8.00 377 13.03
05/03 11:00 4.75 3.42 338 68.13 8.92 8.01 375 12.81
05/03 12:00 4.75 3.42 338 68.63 9.20 8.04 370 12.82
05/03 13:00 4.76 3.42 342 69.21 9.45 8.07 364 12.84
05/03 14:00 4.77 3.42 345 69.75 9.59 8.14 361 12.78
05/03 15:00 4.76 3.42 342 70.18 9.85 8.19 365 12.64
05/03 16:00 4.77 3.42 345 70.56 10.00 8.21 368 12.65
05/03 17:00 4.76 3.42 342 70.88 10.06 8.27 371 12.60
05/03 18:00 4.76 3.42 342 71.20 10.24 8.32 383 12.55
05/03 19:00 4.76 3.42 342 71.55 10.16 8.32 384 12.59
05/03 20:00 4.74 3.42 335 71.64 10.15 8.28 389 12.56
05/03 21:00 4.74 3.42 335 71.71 10.05 8.28 391 12.37
05/03 22:00 4.71 3.43 325 71.82 10.07 8.29 391 12.37
05/03 23:00 ---- ---- ---- ---- ---- ---- ---- ----
Data processed at Mon 04May2026 04:21 GMT

NOTICE: If you are parsing this page

Please convert to using our Data API. Starting early 2026 we will be migrating to: https://water.usace.army.mil with modern pages rendered in JavaScript. When this migration completes you will no longer be able to scrape this page! CWMSDataAPI (CDA)

Timeseries IDs (TSIDs)

TSIDs used from left to right in the data table
CATB.Stage.Inst.1Hour.0.Ccp-Rev
CATB.Stage-Alt.Inst.1Hour.0.Ccp-Rev
CATB.Flow.Inst.1Hour.0.Ccp-Rev
CATB.Temp-Water.Inst.1Hour.0.Ccp-Rev
CATB.Conc-DO.Inst.1Hour.0.Ccp-Rev
CATB.pH.Inst.1Hour.0.Ccp-Rev
CATB.Cond-Water.Inst.1Hour.0.Ccp-Rev
CATB.Volt-Battery Load.Inst.1Hour.0.Ccp-Rev

                            

All information presented herein is the property of the government of the United States of America and may be revised or deleted at any time without prior notice. Dissemination of this information without the expressed written consent of the Public Affairs Office, Tulsa District U.S. Army Corps of Engineers is strictly prohibited. These data are gathered electronically and, as presented, have NOT undergone any form of quality control. These data are NOT guaranteed to be valid or correct.